createdAt,value
2022-08-20T00:01:05.034Z,57.68
2022-08-20T00:03:37.557Z,58.60
2022-08-20T00:06:05.233Z,57.66
2022-08-20T00:08:33.234Z,57.52
2022-08-20T00:11:02.653Z,58.53
2022-08-20T00:13:33.250Z,58.46
2022-08-20T00:16:01.517Z,57.78
2022-08-20T00:18:29.113Z,58.71
2022-08-20T00:20:57.019Z,57.72
2022-08-20T00:23:25.843Z,57.96
2022-08-20T00:25:53.624Z,57.60
2022-08-20T00:28:21.743Z,58.37
2022-08-20T00:30:49.822Z,58.62
2022-08-20T00:33:19.117Z,58.17
2022-08-20T00:35:48.908Z,58.74
2022-08-20T00:38:16.855Z,58.89
2022-08-20T00:40:55.119Z,58.77
2022-08-20T00:43:29.381Z,58.79
2022-08-20T00:45:58.816Z,58.45
2022-08-20T00:48:27.975Z,59.67
2022-08-20T00:50:59.890Z,59.42
2022-08-20T00:53:28.905Z,59.54
2022-08-20T00:55:56.703Z,59.75
2022-08-20T00:58:24.993Z,59.50
2022-08-20T01:00:52.923Z,59.49
2022-08-20T01:03:21.148Z,59.99
2022-08-20T01:05:50.028Z,59.87
2022-08-20T01:08:19.988Z,60.33
2022-08-20T01:10:50.017Z,59.69
2022-08-20T01:13:20.880Z,60.36
2022-08-20T01:15:49.999Z,60.23
2022-08-20T01:18:20.194Z,60.86
2022-08-20T01:20:50.904Z,60.73
2022-08-20T01:23:45.204Z,61.60
2022-08-20T01:26:21.490Z,62.11
2022-08-20T01:28:55.265Z,62.67
2022-08-20T01:31:24.378Z,63.71
2022-08-20T01:33:53.277Z,62.67
2022-08-20T01:36:38.494Z,63.35
2022-08-20T01:39:10.073Z,63.86
2022-08-20T01:41:37.862Z,62.97
2022-08-20T01:44:06.027Z,64.37
2022-08-20T01:46:44.060Z,64.08
2022-08-20T01:49:23.761Z,63.95
2022-08-20T01:51:53.279Z,64.68
2022-08-20T01:54:21.680Z,64.44
2022-08-20T01:56:54.959Z,65.86
2022-08-20T01:59:23.199Z,65.21
2022-08-20T02:01:51.060Z,65.32
2022-08-20T02:04:19.741Z,64.91
2022-08-20T02:06:57.024Z,64.92
2022-08-20T02:09:27.335Z,64.83
2022-08-20T02:11:55.222Z,65.76
2022-08-20T02:14:22.918Z,65.90
2022-08-20T02:16:54.969Z,65.76
2022-08-20T02:19:26.288Z,65.89
2022-08-20T02:21:58.972Z,65.53
2022-08-20T02:24:26.534Z,65.25
2022-08-20T02:26:55.396Z,65.09
2022-08-20T02:29:24.155Z,66.43
2022-08-20T02:32:24.375Z,65.08
2022-08-20T02:34:40.284Z,64.99
2022-08-20T02:37:08.128Z,64.45
2022-08-20T02:39:36.126Z,65.19
2022-08-20T02:42:04.922Z,65.19
2022-08-20T02:44:32.566Z,65.03
2022-08-20T02:47:01.272Z,64.39
2022-08-20T02:49:29.260Z,64.40
2022-08-20T02:51:56.792Z,65.41
2022-08-20T02:54:24.837Z,64.76
2022-08-20T02:56:52.820Z,64.21
2022-08-20T02:59:20.398Z,64.98
2022-08-20T03:01:59.216Z,63.97
2022-08-20T03:04:29.551Z,64.23
2022-08-20T03:06:57.320Z,64.19
2022-08-20T03:09:25.106Z,63.60
2022-08-20T03:11:53.248Z,64.01
2022-08-20T03:14:20.879Z,64.41
2022-08-20T03:16:48.516Z,62.90
2022-08-20T03:19:16.513Z,64.10
2022-08-20T03:21:44.121Z,63.27
2022-08-20T03:24:11.703Z,62.78
2022-08-20T03:26:39.653Z,62.84
2022-08-20T03:29:07.206Z,63.35
2022-08-20T03:31:34.853Z,63.05
2022-08-20T03:34:02.812Z,63.08
2022-08-20T03:36:30.714Z,62.27
2022-08-20T03:38:59.816Z,61.21
2022-08-20T03:41:29.345Z,61.59
2022-08-20T03:43:56.957Z,60.80
2022-08-20T03:46:25.289Z,60.65
2022-08-20T03:49:00.310Z,59.98
2022-08-20T03:51:30.020Z,59.55
2022-08-20T03:53:58.223Z,58.09
2022-08-20T03:56:25.971Z,57.79
2022-08-20T03:58:56.576Z,56.54
2022-08-20T04:01:37.101Z,55.84
2022-08-20T04:04:12.869Z,54.79
2022-08-20T04:06:41.301Z,53.94
2022-08-20T04:09:11.875Z,54.00
2022-08-20T04:11:43.308Z,53.92
2022-08-20T04:14:11.847Z,54.83
2022-08-20T04:16:46.350Z,54.72
2022-08-20T04:19:16.714Z,55.19
2022-08-20T04:21:44.287Z,54.74
2022-08-20T04:24:22.623Z,55.21
2022-08-20T04:26:59.797Z,54.51
2022-08-20T04:29:32.085Z,53.90
2022-08-20T04:32:03.324Z,53.36
2022-08-20T04:34:33.919Z,53.30
2022-08-20T04:37:01.622Z,52.58
2022-08-20T04:39:29.150Z,53.25
2022-08-20T04:41:57.157Z,52.23
2022-08-20T04:44:24.886Z,53.35
2022-08-20T04:46:52.437Z,52.86
2022-08-20T04:49:23.286Z,52.95
2022-08-20T04:51:51.158Z,52.32
2022-08-20T04:54:19.092Z,51.88
2022-08-20T04:56:49.761Z,52.56
2022-08-20T04:59:17.368Z,52.71
2022-08-20T05:01:45.843Z,53.54
2022-08-20T05:04:13.817Z,53.56
2022-08-20T05:06:41.564Z,53.52
2022-08-20T05:09:09.170Z,53.72
2022-08-20T05:11:37.226Z,52.78
2022-08-20T05:16:57.821Z,51.99
2022-08-20T05:19:25.410Z,53.52
2022-08-20T05:21:53.972Z,53.33
2022-08-20T05:24:21.943Z,52.07
2022-08-20T05:26:49.546Z,53.62
2022-08-20T05:29:17.319Z,52.76
2022-08-20T05:31:45.263Z,53.60
2022-08-20T05:34:13.270Z,51.49
2022-08-20T05:36:42.242Z,52.63
2022-08-20T05:39:10.795Z,52.99
2022-08-20T05:41:39.018Z,52.54
2022-08-20T05:44:11.061Z,51.77
2022-08-20T05:46:41.161Z,51.38
2022-08-20T05:49:09.297Z,50.65
2022-08-20T05:51:37.357Z,51.50
2022-08-20T05:54:06.245Z,52.19
2022-08-20T05:56:34.238Z,50.30
2022-08-20T05:59:05.743Z,52.36
2022-08-20T06:01:35.110Z,52.80
2022-08-20T06:04:22.133Z,52.35
2022-08-20T06:06:52.021Z,52.89
2022-08-20T06:09:31.053Z,52.86
2022-08-20T06:12:04.133Z,50.31
2022-08-20T06:14:32.977Z,52.25
2022-08-20T06:17:04.810Z,52.26
2022-08-20T06:19:34.312Z,52.11
2022-08-20T06:22:05.083Z,52.25
2022-08-20T06:24:46.221Z,51.71
2022-08-20T06:27:15.850Z,50.32
2022-08-20T06:29:44.112Z,47.31
2022-08-20T06:32:12.126Z,51.31
2022-08-20T06:34:49.787Z,50.71
2022-08-20T06:37:27.435Z,50.44
2022-08-20T06:40:08.707Z,47.42
2022-08-20T06:42:47.782Z,49.48
2022-08-20T06:45:18.273Z,49.83
2022-08-20T06:47:46.956Z,45.52
2022-08-20T06:50:17.009Z,49.38
2022-08-20T06:52:52.425Z,48.89
2022-08-20T06:55:21.901Z,49.42
2022-08-20T06:57:56.375Z,46.16
2022-08-20T07:00:24.468Z,47.88
2022-08-20T07:02:52.133Z,47.42
2022-08-20T07:05:19.904Z,46.25
2022-08-20T07:07:49.956Z,48.25
2022-08-20T07:10:18.593Z,48.19
2022-08-20T07:12:47.268Z,47.67
2022-08-20T07:15:15.583Z,45.95
2022-08-20T07:17:43.174Z,46.52
2022-08-20T07:20:14.528Z,44.91
2022-08-20T07:22:42.832Z,45.89
2022-08-20T07:25:12.912Z,41.07
2022-08-20T07:27:41.160Z,40.88
2022-08-20T07:30:29.604Z,45.00
2022-08-20T07:32:58.205Z,41.52
2022-08-20T07:35:27.453Z,40.89
2022-08-20T07:37:55.263Z,43.31
2022-08-20T07:40:26.397Z,43.81
2022-08-20T07:42:54.980Z,45.93
2022-08-20T07:45:22.871Z,46.25
2022-08-20T07:47:51.108Z,45.73
2022-08-20T07:50:20.012Z,45.36
2022-08-20T07:52:48.321Z,44.26
2022-08-20T07:55:19.599Z,45.66
2022-08-20T07:57:49.238Z,42.84
2022-08-20T08:00:18.450Z,46.25
2022-08-20T08:02:47.015Z,46.39
2022-08-20T08:05:14.843Z,43.62
2022-08-20T08:07:43.101Z,44.42
2022-08-20T08:10:12.865Z,45.42
2022-08-20T08:12:42.857Z,45.89
2022-08-20T08:15:13.241Z,45.82
2022-08-20T08:17:41.143Z,45.79
2022-08-20T08:20:09.679Z,41.71
2022-08-20T08:22:37.891Z,44.53
2022-08-20T08:25:06.055Z,45.98
2022-08-20T08:27:34.451Z,42.84
2022-08-20T08:30:03.446Z,44.15
2022-08-20T08:32:34.221Z,44.01
2022-08-20T08:35:04.764Z,46.93
2022-08-20T08:37:32.581Z,46.78
2022-08-20T08:40:01.808Z,43.59
2022-08-20T08:42:43.280Z,46.96
2022-08-20T08:45:11.322Z,47.92
2022-08-20T08:47:40.701Z,47.46
2022-08-20T08:50:13.382Z,47.88
2022-08-20T08:52:43.913Z,46.33
2022-08-20T08:55:16.202Z,48.89
2022-08-20T08:57:44.309Z,48.06
2022-08-20T09:00:17.687Z,47.45
2022-08-20T09:02:55.165Z,48.33
2022-08-20T09:05:26.427Z,46.87
2022-08-20T09:07:54.821Z,45.60
2022-08-20T09:10:23.642Z,48.51
2022-08-20T09:12:52.616Z,44.81
2022-08-20T09:15:21.651Z,47.53
2022-08-20T09:17:49.320Z,49.20
2022-08-20T09:20:18.689Z,46.61
2022-08-20T09:22:46.838Z,45.21
2022-08-20T09:25:16.215Z,47.72
2022-08-20T09:27:43.911Z,46.83
2022-08-20T09:30:15.071Z,45.59
2022-08-20T09:32:43.321Z,45.11
2022-08-20T09:35:11.184Z,48.72
2022-08-20T09:37:39.329Z,46.14
2022-08-20T09:40:09.050Z,45.31
2022-08-20T09:42:41.251Z,48.94
2022-08-20T09:45:11.504Z,48.21
2022-08-20T09:47:41.743Z,46.82
2022-08-20T09:50:24.254Z,45.97
2022-08-20T09:52:53.698Z,49.48
2022-08-20T09:55:21.591Z,47.19
2022-08-20T09:57:50.746Z,46.88
2022-08-20T10:00:18.501Z,47.20
2022-08-20T10:02:46.627Z,49.37
2022-08-20T10:05:14.511Z,49.56
2022-08-20T10:07:42.568Z,47.42
2022-08-20T10:10:12.106Z,47.64
2022-08-20T10:12:41.863Z,48.38
2022-08-20T10:15:10.320Z,47.72
2022-08-20T10:17:41.826Z,48.70
2022-08-20T10:20:11.816Z,47.08
2022-08-20T10:22:39.629Z,48.74
2022-08-20T10:25:07.469Z,47.80
2022-08-20T10:27:38.199Z,48.66
2022-08-20T10:30:06.959Z,48.14
2022-08-20T10:35:22.556Z,46.16
2022-08-20T10:37:50.681Z,44.73
2022-08-20T10:40:18.578Z,45.06
2022-08-20T10:42:46.424Z,45.32
2022-08-20T10:45:16.406Z,44.72
2022-08-20T10:47:44.590Z,41.72
2022-08-20T10:50:17.620Z,43.15
2022-08-20T10:52:46.341Z,38.51
2022-08-20T10:55:14.593Z,42.82
2022-08-20T10:57:43.467Z,41.51
2022-08-20T11:00:15.400Z,41.40
2022-08-20T11:02:43.154Z,39.55
2022-08-20T11:05:13.320Z,37.80
2022-08-20T11:07:49.939Z,37.23
2022-08-20T11:10:29.277Z,40.22
2022-08-20T11:13:25.423Z,40.96
2022-08-20T11:15:53.251Z,40.73
2022-08-20T11:18:23.590Z,40.44
2022-08-20T11:20:51.280Z,41.52
2022-08-20T11:23:18.951Z,41.68
2022-08-20T11:25:48.663Z,40.98
2022-08-20T11:28:16.660Z,37.55
2022-08-20T11:31:00.334Z,41.04
2022-08-20T11:33:28.040Z,41.32
2022-08-20T11:35:55.771Z,36.20
2022-08-20T11:38:23.955Z,40.72
2022-08-20T11:40:51.801Z,41.20
2022-08-20T11:43:19.569Z,40.76
2022-08-20T11:45:55.744Z,40.78
2022-08-20T11:48:23.526Z,37.54
2022-08-20T11:50:52.042Z,40.53
2022-08-20T11:53:19.790Z,40.03
2022-08-20T11:55:49.365Z,37.71
2022-08-20T11:58:18.115Z,40.64
2022-08-20T12:00:45.906Z,40.93
2022-08-20T12:03:14.014Z,39.75
2022-08-20T12:05:43.095Z,40.53
2022-08-20T12:08:27.410Z,40.84
2022-08-20T12:10:58.103Z,40.87
2022-08-20T12:13:47.196Z,41.20
2022-08-20T12:16:15.344Z,40.10
2022-08-20T12:18:43.189Z,39.89
2022-08-20T12:21:10.983Z,40.96
2022-08-20T12:23:39.210Z,41.85
2022-08-20T12:26:06.962Z,39.63
2022-08-20T12:28:34.749Z,41.31
2022-08-20T12:31:02.884Z,40.84
2022-08-20T12:33:30.731Z,42.03
2022-08-20T12:36:01.308Z,41.06
2022-08-20T12:38:29.364Z,38.57
2022-08-20T12:40:57.124Z,37.48
2022-08-20T12:43:25.345Z,42.18
2022-08-20T12:45:53.496Z,38.70
2022-08-20T12:48:21.348Z,42.90
2022-08-20T12:50:50.512Z,41.64
2022-08-20T12:53:19.069Z,42.88
2022-08-20T12:55:47.218Z,43.08
2022-08-20T12:58:14.864Z,42.71
2022-08-20T13:00:45.978Z,44.52
2022-08-20T13:03:16.294Z,42.73
2022-08-20T13:05:44.248Z,40.05
2022-08-20T13:08:12.305Z,42.43
2022-08-20T13:10:44.587Z,41.23
2022-08-20T13:13:13.345Z,41.09
2022-08-20T13:15:41.182Z,43.16
2022-08-20T13:18:09.273Z,40.65
2022-08-20T13:20:37.532Z,42.93
2022-08-20T13:23:05.555Z,41.54
2022-08-20T13:25:34.044Z,42.87
2022-08-20T13:28:04.832Z,42.09
2022-08-20T13:30:33.612Z,36.76
2022-08-20T13:33:01.310Z,41.78
2022-08-20T13:35:29.926Z,40.53
2022-08-20T13:37:57.612Z,40.83
2022-08-20T13:40:26.183Z,37.94
2022-08-20T13:42:54.517Z,37.86
2022-08-20T13:45:22.165Z,36.65
2022-08-20T13:47:52.757Z,38.21
2022-08-20T13:50:22.011Z,37.79
2022-08-20T13:52:49.757Z,36.66
2022-08-20T13:55:19.147Z,34.87
2022-08-20T13:57:48.059Z,34.79
2022-08-20T14:00:17.942Z,35.76
2022-08-20T14:02:46.233Z,36.65
2022-08-20T14:05:18.594Z,38.74
2022-08-20T14:07:48.483Z,35.75
2022-08-20T14:10:18.361Z,35.00
2022-08-20T14:12:48.255Z,37.17
2022-08-20T14:15:16.099Z,35.54
2022-08-20T14:17:49.630Z,35.26
2022-08-20T14:20:20.087Z,35.51
2022-08-20T14:22:47.794Z,35.38
2022-08-20T14:25:16.500Z,35.36
2022-08-20T14:27:44.537Z,37.38
2022-08-20T14:30:14.440Z,34.33
2022-08-20T14:32:42.171Z,34.11
2022-08-20T14:35:10.917Z,33.44
2022-08-20T14:37:40.921Z,33.13
2022-08-20T14:40:10.295Z,32.69
2022-08-20T14:42:38.600Z,33.00
2022-08-20T14:45:07.401Z,33.38
2022-08-20T14:47:36.301Z,33.61
2022-08-20T14:50:09.301Z,32.06
2022-08-20T14:52:37.281Z,30.86
2022-08-20T14:55:06.293Z,31.70
2022-08-20T14:57:34.104Z,30.41
2022-08-20T15:00:02.013Z,30.81
2022-08-20T15:02:31.473Z,30.39
2022-08-20T15:04:59.183Z,31.71
2022-08-20T15:07:32.096Z,32.30
2022-08-20T15:10:01.925Z,33.41
2022-08-20T15:12:30.580Z,34.22
2022-08-20T15:15:05.893Z,36.93
2022-08-20T15:17:45.246Z,37.69
2022-08-20T15:20:20.351Z,37.85
2022-08-20T15:22:49.622Z,38.30
2022-08-20T15:25:19.504Z,39.10
2022-08-20T15:27:47.721Z,40.45
2022-08-20T15:30:17.234Z,37.20
2022-08-20T15:32:45.584Z,40.41
2022-08-20T15:35:13.632Z,40.22
2022-08-20T15:37:42.911Z,41.66
2022-08-20T15:40:12.377Z,41.58
2022-08-20T15:42:44.002Z,40.35
2022-08-20T15:45:22.007Z,39.57
2022-08-20T15:47:53.787Z,41.47
2022-08-20T15:50:38.355Z,41.20
2022-08-20T15:53:10.256Z,43.03
2022-08-20T15:55:41.369Z,42.48
2022-08-20T15:58:29.122Z,41.46
2022-08-20T16:01:24.218Z,39.77
2022-08-20T16:07:00.732Z,43.05
2022-08-20T16:09:38.585Z,43.48
2022-08-20T16:12:11.529Z,42.74
2022-08-20T16:14:41.384Z,41.23
2022-08-20T16:17:15.451Z,42.00
2022-08-20T16:20:02.383Z,44.75
2022-08-20T16:22:31.972Z,45.14
2022-08-20T16:25:00.711Z,44.19
2022-08-20T16:27:33.175Z,42.38
2022-08-20T16:30:03.586Z,46.25
2022-08-20T16:32:31.481Z,45.50
2022-08-20T16:35:03.202Z,47.30
2022-08-20T16:37:38.269Z,46.93
2022-08-20T16:40:26.231Z,48.10
2022-08-20T16:42:57.265Z,47.36
2022-08-20T16:45:27.239Z,45.44
2022-08-20T16:47:59.752Z,46.14
2022-08-20T16:50:34.076Z,48.79
2022-08-20T16:53:02.236Z,48.33
2022-08-20T16:55:29.927Z,45.11
2022-08-20T16:57:57.623Z,45.53
2022-08-20T17:00:35.275Z,45.53
2022-08-20T17:03:04.992Z,48.09
2022-08-20T17:05:38.914Z,43.75
2022-08-20T17:08:16.585Z,44.94
2022-08-20T17:11:07.350Z,48.89
2022-08-20T17:13:37.390Z,49.28
2022-08-20T17:16:07.889Z,45.02
2022-08-20T17:18:37.608Z,43.37
2022-08-20T17:21:23.621Z,44.92
2022-08-20T17:23:59.012Z,46.76
2022-08-20T17:26:32.351Z,47.63
2022-08-20T17:29:01.235Z,47.96
2022-08-20T17:31:38.825Z,48.38
2022-08-20T17:34:14.114Z,47.16
2022-08-20T17:36:52.368Z,49.27
2022-08-20T17:39:21.536Z,45.55
2022-08-20T17:41:50.851Z,48.19
2022-08-20T17:44:21.900Z,48.35
2022-08-20T17:46:50.747Z,49.50
2022-08-20T17:49:20.187Z,47.86
2022-08-20T17:51:52.977Z,48.52
2022-08-20T17:54:21.261Z,49.00
2022-08-20T17:56:52.771Z,50.51
2022-08-20T17:59:59.614Z,46.92
2022-08-20T18:02:21.229Z,50.03
2022-08-20T18:04:49.824Z,48.45
2022-08-20T18:07:27.633Z,49.75
2022-08-20T18:09:58.289Z,50.26
2022-08-20T18:12:35.858Z,50.41
2022-08-20T18:15:10.241Z,49.99
2022-08-20T18:17:58.815Z,50.09
2022-08-20T18:20:45.720Z,48.01
2022-08-20T18:23:16.947Z,48.68
2022-08-20T18:25:50.468Z,49.29
2022-08-20T18:28:18.149Z,47.83
2022-08-20T18:30:50.922Z,50.66
2022-08-20T18:33:32.402Z,50.95
2022-08-20T18:36:08.567Z,50.33
2022-08-20T18:38:39.310Z,49.24
2022-08-20T18:41:07.342Z,50.39
2022-08-20T18:43:36.042Z,49.85
2022-08-20T18:46:12.108Z,50.06
2022-08-20T18:48:50.420Z,50.29
2022-08-20T18:51:20.258Z,49.10
2022-08-20T18:53:51.922Z,49.24
2022-08-20T18:56:30.059Z,50.30
2022-08-20T18:59:00.772Z,49.42
2022-08-20T19:01:28.727Z,49.38
2022-08-20T19:03:56.790Z,50.02
2022-08-20T19:06:29.175Z,49.61
2022-08-20T19:09:01.369Z,49.17
2022-08-20T19:11:40.802Z,49.31
2022-08-20T19:14:11.586Z,48.50
2022-08-20T19:16:59.967Z,48.53
2022-08-20T19:19:32.677Z,50.43
2022-08-20T19:22:02.736Z,47.95
2022-08-20T19:24:31.915Z,49.94
2022-08-20T19:27:01.689Z,48.38
2022-08-20T19:29:31.339Z,50.22
2022-08-20T19:32:02.220Z,49.66
2022-08-20T19:34:31.867Z,51.15
2022-08-20T19:37:04.549Z,51.54
2022-08-20T19:39:51.091Z,51.20
2022-08-20T19:42:19.015Z,50.39
2022-08-20T19:44:52.329Z,50.94
2022-08-20T19:47:30.129Z,51.47
2022-08-20T19:50:09.960Z,50.31
2022-08-20T19:52:42.846Z,52.00
2022-08-20T19:55:16.394Z,52.09
2022-08-20T19:57:51.741Z,52.08
2022-08-20T20:00:20.049Z,51.94
2022-08-20T20:02:48.257Z,52.45
2022-08-20T20:05:16.537Z,52.71
2022-08-20T20:07:48.211Z,51.22
2022-08-20T20:10:37.122Z,51.47
2022-08-20T20:13:17.402Z,49.31
2022-08-20T20:15:45.671Z,51.11
2022-08-20T20:18:14.062Z,52.15
2022-08-20T20:20:55.903Z,52.44
2022-08-20T20:23:45.556Z,53.59
2022-08-20T20:29:06.911Z,52.90
2022-08-20T20:31:38.634Z,52.89
2022-08-20T20:34:11.794Z,53.71
2022-08-20T20:36:44.661Z,52.95
2022-08-20T20:39:28.378Z,53.61
2022-08-20T20:41:57.673Z,53.17
2022-08-20T20:44:28.780Z,53.21
2022-08-20T20:46:58.289Z,53.79
2022-08-20T20:49:37.840Z,51.62
2022-08-20T20:52:14.972Z,52.19
2022-08-20T20:54:44.932Z,54.51
2022-08-20T20:57:15.669Z,53.14
2022-08-20T20:59:44.052Z,54.65
2022-08-20T21:02:11.680Z,52.40
2022-08-20T21:04:42.499Z,54.13
2022-08-20T21:07:13.049Z,54.66
2022-08-20T21:09:41.573Z,53.59
2022-08-20T21:12:10.444Z,55.09
2022-08-20T21:14:38.668Z,51.81
2022-08-20T21:17:07.473Z,55.28
2022-08-20T21:19:35.030Z,54.96
2022-08-20T21:22:13.551Z,54.22
2022-08-20T21:24:41.326Z,54.82
2022-08-20T21:27:09.011Z,55.89
2022-08-20T21:29:40.551Z,54.57
2022-08-20T21:32:08.380Z,56.40
2022-08-20T21:34:40.434Z,56.27
2022-08-20T21:37:08.038Z,54.68
2022-08-20T21:42:29.169Z,56.40
2022-08-20T21:45:00.124Z,56.99
2022-08-20T21:47:28.607Z,56.28
2022-08-20T21:49:56.162Z,55.75
2022-08-20T21:52:24.834Z,55.26
2022-08-20T21:54:53.343Z,58.57
2022-08-20T21:57:26.624Z,54.15
2022-08-20T21:59:55.573Z,55.47
2022-08-20T22:02:25.187Z,58.04
2022-08-20T22:04:54.121Z,54.91
2022-08-20T22:07:22.283Z,55.80
2022-08-20T22:09:49.872Z,58.68
2022-08-20T22:12:20.495Z,54.71
2022-08-20T22:14:48.230Z,55.83
2022-08-20T22:17:15.993Z,58.78
2022-08-20T22:19:43.985Z,54.94
2022-08-20T22:22:12.368Z,58.99
2022-08-20T22:24:39.962Z,57.05
2022-08-20T22:27:08.127Z,59.30
2022-08-20T22:29:35.811Z,54.49
2022-08-20T22:32:04.083Z,55.36
2022-08-20T22:34:36.503Z,56.15
2022-08-20T22:37:06.730Z,55.64
2022-08-20T22:39:34.774Z,56.27
2022-08-20T22:42:02.415Z,58.62
2022-08-20T22:44:29.922Z,57.31
2022-08-20T22:47:00.521Z,59.64
2022-08-20T22:49:29.482Z,58.94
2022-08-20T22:51:57.688Z,60.98
2022-08-20T22:54:25.830Z,58.57
2022-08-20T22:56:54.470Z,56.62
2022-08-20T22:59:22.104Z,61.33
2022-08-20T23:01:51.659Z,58.14
2022-08-20T23:04:29.891Z,58.55
2022-08-20T23:06:58.560Z,60.70
2022-08-20T23:09:26.777Z,59.17
2022-08-20T23:11:54.361Z,61.39
2022-08-20T23:17:13.215Z,57.88
2022-08-20T23:19:42.084Z,61.18
2022-08-20T23:22:09.787Z,60.08
2022-08-20T23:24:37.474Z,57.30
2022-08-20T23:27:06.592Z,61.64
2022-08-20T23:29:34.541Z,61.73
2022-08-20T23:32:02.252Z,56.47
2022-08-20T23:34:30.247Z,57.23
2022-08-20T23:36:57.827Z,61.11
2022-08-20T23:39:26.007Z,61.63
2022-08-20T23:41:53.908Z,60.08
2022-08-20T23:44:26.614Z,59.87
2022-08-20T23:46:56.191Z,61.10
2022-08-20T23:49:23.774Z,59.16
2022-08-20T23:51:51.376Z,61.02
2022-08-20T23:54:19.417Z,58.16
2022-08-20T23:56:47.028Z,62.11
2022-08-20T23:59:14.547Z,60.22
